createdAt,value
2016-08-26T00:00:41.852Z,0
2016-08-26T00:01:40.443Z,0
2016-08-26T00:02:40.601Z,0
2016-08-26T00:03:39.770Z,0
2016-08-26T00:04:40.575Z,0
2016-08-26T00:05:41.952Z,0
2016-08-26T00:06:40.651Z,0
2016-08-26T00:07:42.013Z,0
2016-08-26T00:08:41.390Z,0
2016-08-26T00:09:41.442Z,0
2016-08-26T00:10:41.483Z,0
2016-08-26T00:11:42.107Z,0
2016-08-26T00:12:42.129Z,0
2016-08-26T00:13:41.441Z,0
2016-08-26T00:14:42.187Z,0
2016-08-26T00:15:40.804Z,0
2016-08-26T00:16:42.229Z,0
2016-08-26T00:17:40.844Z,0
2016-08-26T00:18:41.643Z,0
2016-08-26T00:19:40.173Z,0
2016-08-26T00:20:42.318Z,0
2016-08-26T00:21:40.941Z,0
2016-08-26T00:22:41.682Z,0
2016-08-26T00:23:41.692Z,0
2016-08-26T00:24:41.011Z,0
2016-08-26T00:25:42.453Z,0
2016-08-26T00:26:42.500Z,0
2016-08-26T00:27:41.809Z,0
2016-08-26T00:28:41.920Z,0
2016-08-26T00:29:41.127Z,0
2016-08-26T00:30:41.874Z,0
2016-08-26T00:31:41.189Z,0
2016-08-26T00:32:42.704Z,0
2016-08-26T00:33:42.646Z,0
2016-08-26T00:34:41.288Z,0
2016-08-26T00:35:41.303Z,0
2016-08-26T00:36:41.341Z,0
2016-08-26T00:37:42.052Z,0
2016-08-26T00:38:42.078Z,0
2016-08-26T00:39:41.390Z,0
2016-08-26T00:40:42.134Z,0
2016-08-26T00:41:40.742Z,0
2016-08-26T00:42:42.189Z,0
2016-08-26T00:43:42.909Z,0
2016-08-26T00:44:41.532Z,0
2016-08-26T00:45:42.955Z,0
2016-08-26T00:46:42.273Z,0
2016-08-26T00:47:43.103Z,0
2016-08-26T00:48:43.028Z,0
2016-08-26T00:49:42.340Z,0
2016-08-26T00:50:41.680Z,0
2016-08-26T00:51:42.417Z,0
2016-08-26T00:52:42.577Z,0
2016-08-26T00:53:43.150Z,0
2016-08-26T00:54:42.546Z,0
2016-08-26T00:55:42.490Z,0
2016-08-26T00:56:42.517Z,0
2016-08-26T00:57:42.605Z,0
2016-08-26T00:58:42.694Z,0
2016-08-26T00:59:41.942Z,0
2016-08-26T01:00:42.630Z,0
2016-08-26T01:01:41.982Z,0
2016-08-26T01:02:41.963Z,0
2016-08-26T01:03:42.792Z,0
2016-08-26T01:04:42.729Z,0
2016-08-26T01:05:43.496Z,0
2016-08-26T01:06:42.077Z,0
2016-08-26T01:07:42.789Z,0
2016-08-26T01:08:42.801Z,0
2016-08-26T01:09:42.826Z,0
2016-08-26T01:10:43.579Z,0
2016-08-26T01:11:41.491Z,0
2016-08-26T01:12:42.933Z,0
2016-08-26T01:13:42.238Z,0
2016-08-26T01:14:43.134Z,0
2016-08-26T01:15:42.299Z,0
2016-08-26T01:16:43.069Z,0
2016-08-26T01:17:43.052Z,0
2016-08-26T01:18:43.811Z,0
2016-08-26T01:19:43.090Z,0
2016-08-26T01:20:43.111Z,0
2016-08-26T01:21:42.494Z,0
2016-08-26T01:22:43.181Z,0
2016-08-26T01:23:42.503Z,0
2016-08-26T01:24:43.224Z,0
2016-08-26T01:25:43.361Z,0
2016-08-26T01:26:43.278Z,0
2016-08-26T01:27:43.375Z,0
2016-08-26T01:28:42.596Z,0
2016-08-26T01:29:44.142Z,0
2016-08-26T01:30:44.088Z,0
2016-08-26T01:31:42.754Z,0
2016-08-26T01:32:43.411Z,0
2016-08-26T01:33:43.439Z,0
2016-08-26T01:34:43.621Z,0
2016-08-26T01:35:44.204Z,0
2016-08-26T01:36:44.210Z,0
2016-08-26T01:37:43.556Z,0
2016-08-26T01:38:43.649Z,0
2016-08-26T01:39:42.871Z,0
2016-08-26T01:40:43.621Z,0
2016-08-26T01:41:43.636Z,0
2016-08-26T01:42:44.425Z,0
2016-08-26T01:43:43.691Z,0
2016-08-26T01:44:43.702Z,0
2016-08-26T01:45:44.440Z,0
2016-08-26T01:46:43.064Z,0
2016-08-26T01:47:43.094Z,0
2016-08-26T01:48:43.095Z,0
2016-08-26T01:49:43.122Z,0
2016-08-26T01:50:43.240Z,0
2016-08-26T01:51:43.166Z,0
2016-08-26T01:52:43.913Z,0
2016-08-26T01:53:44.693Z,0
2016-08-26T01:54:44.658Z,0
2016-08-26T01:55:43.264Z,0
2016-08-26T01:56:43.300Z,0
2016-08-26T01:57:44.026Z,0
2016-08-26T01:58:44.213Z,0
2016-08-26T01:59:43.362Z,0
2016-08-26T02:00:42.714Z,0
2016-08-26T02:01:42.711Z,0
2016-08-26T02:02:44.178Z,0
2016-08-26T02:03:44.173Z,0
2016-08-26T02:04:42.795Z,0
2016-08-26T02:05:44.271Z,0
2016-08-26T02:06:44.955Z,0
2016-08-26T02:07:44.993Z,0
2016-08-26T02:08:43.601Z,0
2016-08-26T02:09:44.358Z,0
2016-08-26T02:10:45.063Z,0
2016-08-26T02:11:44.470Z,0
2016-08-26T02:12:43.692Z,0
2016-08-26T02:13:45.148Z,0
2016-08-26T02:14:44.447Z,0
2016-08-26T02:15:44.490Z,0
2016-08-26T02:16:43.872Z,0
2016-08-26T02:17:45.243Z,0
2016-08-26T02:18:44.557Z,0
2016-08-26T02:19:44.570Z,0
2016-08-26T02:20:45.440Z,0
2016-08-26T02:21:44.604Z,0
2016-08-26T02:22:45.368Z,0
2016-08-26T02:23:44.662Z,0
2016-08-26T02:24:44.723Z,0
2016-08-26T02:25:45.443Z,0
2016-08-26T02:26:45.453Z,0
2016-08-26T02:27:44.213Z,0
2016-08-26T02:28:44.868Z,0
2016-08-26T02:29:44.873Z,0
2016-08-26T02:30:44.859Z,0
2016-08-26T02:31:44.263Z,0
2016-08-26T02:32:44.884Z,0
2016-08-26T02:33:44.273Z,0
2016-08-26T02:34:44.961Z,0
2016-08-26T02:35:44.254Z,0
2016-08-26T02:36:45.701Z,0
2016-08-26T02:37:44.391Z,0
2016-08-26T02:38:45.120Z,0
2016-08-26T02:39:45.052Z,0
2016-08-26T02:40:45.138Z,0
2016-08-26T02:41:45.112Z,0
2016-08-26T02:42:44.448Z,0
2016-08-26T02:43:45.160Z,0
2016-08-26T02:44:44.541Z,0
2016-08-26T02:45:44.635Z,0
2016-08-26T02:46:46.040Z,0
2016-08-26T02:47:45.264Z,0
2016-08-26T02:48:45.291Z,0
2016-08-26T02:49:44.601Z,0
2016-08-26T02:50:43.930Z,0
2016-08-26T02:51:45.349Z,0
2016-08-26T02:52:44.702Z,0
2016-08-26T02:53:45.419Z,0
2016-08-26T02:54:45.433Z,0
2016-08-26T02:55:44.834Z,0
2016-08-26T02:56:44.774Z,0
2016-08-26T02:57:45.630Z,0
2016-08-26T02:58:45.535Z,0
2016-08-26T02:59:45.563Z,0
2016-08-26T03:00:45.594Z,0
2016-08-26T03:01:45.694Z,0
2016-08-26T03:02:44.929Z,0
2016-08-26T03:03:45.634Z,0
2016-08-26T03:04:44.961Z,0
2016-08-26T03:05:46.417Z,0
2016-08-26T03:06:45.025Z,0
2016-08-26T03:07:45.756Z,0
2016-08-26T03:08:45.766Z,0
2016-08-26T03:09:45.088Z,0
2016-08-26T03:10:44.524Z,0
2016-08-26T03:11:45.140Z,0
2016-08-26T03:12:45.955Z,0
2016-08-26T03:13:45.985Z,0
2016-08-26T03:14:45.921Z,0
2016-08-26T03:15:46.642Z,0
2016-08-26T03:16:45.264Z,0
2016-08-26T03:17:46.143Z,0
2016-08-26T03:18:45.322Z,0
2016-08-26T03:19:46.043Z,0
2016-08-26T03:20:45.363Z,0
2016-08-26T03:21:46.173Z,0
2016-08-26T03:22:44.704Z,0
2016-08-26T03:23:45.435Z,0
2016-08-26T03:24:46.165Z,0
2016-08-26T03:25:46.186Z,0
2016-08-26T03:26:45.605Z,0
2016-08-26T03:27:46.272Z,0
2016-08-26T03:28:46.275Z,0
2016-08-26T03:29:44.855Z,0
2016-08-26T03:30:46.321Z,0
2016-08-26T03:31:45.625Z,0
2016-08-26T03:32:45.647Z,0
2016-08-26T03:33:46.412Z,0
2016-08-26T03:34:46.395Z,0
2016-08-26T03:35:46.524Z,0
2016-08-26T03:36:47.173Z,0
2016-08-26T03:37:46.539Z,0
2016-08-26T03:38:47.226Z,0
2016-08-26T03:39:45.125Z,0
2016-08-26T03:40:46.577Z,0
2016-08-26T03:41:45.883Z,0
2016-08-26T03:42:46.605Z,0
2016-08-26T03:43:47.428Z,4
2016-08-26T03:44:46.653Z,4
2016-08-26T03:45:47.494Z,0
2016-08-26T03:46:47.404Z,4
2016-08-26T03:47:46.724Z,4
2016-08-26T03:48:46.755Z,4
2016-08-26T03:49:46.751Z,4
2016-08-26T03:50:46.181Z,4
2016-08-26T03:51:46.816Z,4
2016-08-26T03:52:46.855Z,4
2016-08-26T03:53:45.456Z,8
2016-08-26T03:54:47.151Z,12
2016-08-26T03:55:46.916Z,8
2016-08-26T03:56:46.968Z,12
2016-08-26T03:57:47.664Z,12
2016-08-26T03:58:47.689Z,16
2016-08-26T03:59:47.037Z,20
2016-08-26T04:00:46.325Z,24
2016-08-26T04:01:47.836Z,28
2016-08-26T04:02:46.371Z,32
2016-08-26T04:03:47.830Z,40
2016-08-26T04:04:47.835Z,44
2016-08-26T04:05:47.203Z,48
2016-08-26T04:06:45.857Z,60
2016-08-26T04:07:47.207Z,68
2016-08-26T04:08:47.950Z,76
2016-08-26T04:09:47.960Z,84
2016-08-26T04:10:47.967Z,96
2016-08-26T04:11:46.595Z,108
2016-08-26T04:12:47.433Z,124
2016-08-26T04:13:47.353Z,140
2016-08-26T04:14:47.820Z,152
2016-08-26T04:15:48.101Z,172
2016-08-26T04:16:48.141Z,192
2016-08-26T04:17:48.147Z,212
2016-08-26T04:18:48.198Z,232
2016-08-26T04:19:46.775Z,260
2016-08-26T04:20:46.107Z,284
2016-08-26T04:21:47.557Z,308
2016-08-26T04:22:47.565Z,336
2016-08-26T04:23:47.720Z,368
2016-08-26T04:24:47.625Z,400
2016-08-26T04:25:47.827Z,432
2016-08-26T04:26:46.967Z,464
2016-08-26T04:27:47.879Z,500
2016-08-26T04:28:47.257Z,536
2016-08-26T04:29:47.883Z,576
2016-08-26T04:30:47.907Z,620
2016-08-26T04:31:47.186Z,656
2016-08-26T04:32:48.596Z,704
2016-08-26T04:33:47.813Z,748
2016-08-26T04:34:47.861Z,800
2016-08-26T04:35:47.887Z,852
2016-08-26T04:36:46.495Z,904
2016-08-26T04:37:47.222Z,964
2016-08-26T04:38:47.355Z,1024
2016-08-26T04:39:47.988Z,1080
2016-08-26T04:40:48.076Z,1140
2016-08-26T04:41:48.038Z,1204
2016-08-26T04:42:48.255Z,1264
2016-08-26T04:43:47.450Z,1324
2016-08-26T04:44:48.091Z,1380
2016-08-26T04:45:47.497Z,1428
2016-08-26T04:46:48.132Z,1476
2016-08-26T04:47:47.458Z,1524
2016-08-26T04:48:47.506Z,1576
2016-08-26T04:49:48.223Z,1628
2016-08-26T04:50:48.250Z,1684
2016-08-26T04:51:47.565Z,1744
2016-08-26T04:52:47.683Z,1820
2016-08-26T04:53:48.328Z,1904
2016-08-26T04:54:47.628Z,1996
2016-08-26T04:55:47.748Z,2092
2016-08-26T04:56:48.379Z,2192
2016-08-26T04:57:48.414Z,2284
2016-08-26T04:58:48.437Z,2380
2016-08-26T04:59:47.815Z,2476
2016-08-26T05:00:47.778Z,2584
2016-08-26T05:01:48.496Z,2680
2016-08-26T05:02:49.276Z,2760
2016-08-26T05:03:47.853Z,2812
2016-08-26T05:04:49.355Z,2844
2016-08-26T05:05:48.700Z,2872
2016-08-26T05:06:47.922Z,2884
2016-08-26T05:07:48.106Z,2888
2016-08-26T05:08:47.380Z,2884
2016-08-26T05:09:48.055Z,2872
2016-08-26T05:10:48.735Z,2876
2016-08-26T05:11:48.794Z,2892
2016-08-26T05:12:48.868Z,2924
2016-08-26T05:13:49.558Z,2960
2016-08-26T05:14:48.829Z,2992
2016-08-26T05:15:48.854Z,3024
2016-08-26T05:16:49.587Z,3064
2016-08-26T05:17:48.889Z,3140
2016-08-26T05:18:48.949Z,3236
2016-08-26T05:19:49.665Z,3324
2016-08-26T05:20:48.265Z,3360
2016-08-26T05:21:47.591Z,3388
2016-08-26T05:22:49.763Z,3432
2016-08-26T05:23:49.038Z,3464
2016-08-26T05:24:49.060Z,3484
2016-08-26T05:25:49.080Z,3528
2016-08-26T05:26:48.402Z,3608
2016-08-26T05:27:49.218Z,3704
2016-08-26T05:28:49.925Z,3784
2016-08-26T05:29:48.498Z,3928
2016-08-26T05:30:48.591Z,4188
2016-08-26T05:31:49.251Z,4436
2016-08-26T05:32:48.563Z,4628
2016-08-26T05:33:48.582Z,4604
2016-08-26T05:34:49.317Z,4656
2016-08-26T05:35:47.921Z,5356
2016-08-26T05:36:47.945Z,7672
2016-08-26T05:37:50.107Z,9844
2016-08-26T05:38:49.417Z,10784
2016-08-26T05:39:48.103Z,10988
2016-08-26T05:40:50.172Z,11052
2016-08-26T05:41:48.793Z,11136
2016-08-26T05:42:50.227Z,9984
2016-08-26T05:43:49.637Z,8500
2016-08-26T05:44:48.955Z,9892
2016-08-26T05:45:48.885Z,11460
2016-08-26T05:46:49.630Z,11928
2016-08-26T05:47:48.947Z,12016
2016-08-26T05:48:48.962Z,12108
2016-08-26T05:49:49.032Z,12184
2016-08-26T05:50:49.740Z,12520
2016-08-26T05:51:49.062Z,12872
2016-08-26T05:52:49.796Z,13064
2016-08-26T05:53:49.838Z,13160
2016-08-26T05:54:49.116Z,13332
2016-08-26T05:55:49.861Z,13488
2016-08-26T05:56:49.889Z,13796
2016-08-26T05:57:49.942Z,14272
2016-08-26T05:58:49.277Z,14720
2016-08-26T05:59:50.700Z,15104
2016-08-26T06:00:50.028Z,15392
2016-08-26T06:01:50.029Z,15520
2016-08-26T06:02:49.609Z,15648
2016-08-26T06:03:50.080Z,15008
2016-08-26T06:04:50.890Z,15392
2016-08-26T06:05:49.443Z,16384
2016-08-26T06:06:49.499Z,16576
2016-08-26T06:07:50.287Z,16736
2016-08-26T06:08:50.254Z,16704
2016-08-26T06:09:50.978Z,16608
2016-08-26T06:10:50.388Z,16640
2016-08-26T06:11:50.340Z,16576
2016-08-26T06:12:51.095Z,16448
2016-08-26T06:13:50.543Z,16416
2016-08-26T06:14:49.741Z,16480
2016-08-26T06:15:50.470Z,16704
2016-08-26T06:16:49.843Z,16736
2016-08-26T06:17:50.545Z,16608
2016-08-26T06:18:50.581Z,16512
2016-08-26T06:19:49.963Z,16544
2016-08-26T06:20:51.345Z,16576
2016-08-26T06:21:49.248Z,16736
2016-08-26T06:22:51.418Z,17216
2016-08-26T06:23:51.441Z,18144
2016-08-26T06:24:50.068Z,18720
2016-08-26T06:25:50.788Z,18048
2016-08-26T06:26:49.506Z,12568
2016-08-26T06:27:50.898Z,13476
2016-08-26T06:28:51.631Z,10504
2016-08-26T06:29:50.938Z,18080
2016-08-26T06:30:50.256Z,18624
2016-08-26T06:31:51.758Z,18592
2016-08-26T06:32:51.740Z,18336
2016-08-26T06:33:50.415Z,18304
2016-08-26T06:34:49.907Z,18752
2016-08-26T06:35:51.107Z,20096
2016-08-26T06:36:49.839Z,20928
2016-08-26T06:37:50.469Z,15872
2016-08-26T06:38:50.058Z,13488
2016-08-26T06:39:50.559Z,20576
2016-08-26T06:40:51.669Z,18560
2016-08-26T06:41:52.175Z,19680
2016-08-26T06:42:51.680Z,23008
2016-08-26T06:43:52.184Z,22816
2016-08-26T06:44:51.437Z,20320
2016-08-26T06:45:51.520Z,19424
2016-08-26T06:46:52.358Z,20192
2016-08-26T06:47:51.544Z,21408
2016-08-26T06:48:52.389Z,17856
2016-08-26T06:49:51.768Z,16704
2016-08-26T06:50:51.628Z,18272
2016-08-26T06:51:52.449Z,17056
2016-08-26T06:52:50.299Z,21408
2016-08-26T06:53:51.102Z,18432
2016-08-26T06:54:52.477Z,20864
2016-08-26T06:55:52.518Z,17504
2016-08-26T06:56:52.547Z,16736
2016-08-26T06:57:52.583Z,16960
2016-08-26T06:58:50.496Z,16384
2016-08-26T06:59:51.936Z,15872
2016-08-26T07:00:51.378Z,15136
2016-08-26T07:01:51.469Z,13196
2016-08-26T07:02:52.758Z,13108
2016-08-26T07:03:52.799Z,19360
2016-08-26T07:04:51.423Z,18784
2016-08-26T07:05:51.447Z,20224
2016-08-26T07:06:52.911Z,18400
2016-08-26T07:07:52.915Z,18816
2016-08-26T07:08:52.280Z,17568
2016-08-26T07:09:51.580Z,15712
2016-08-26T07:10:52.303Z,34016
2016-08-26T07:11:53.084Z,38368
2016-08-26T07:12:52.415Z,35360
2016-08-26T07:13:53.128Z,30688
2016-08-26T07:14:53.174Z,30624
2016-08-26T07:15:52.506Z,32448
2016-08-26T07:16:52.531Z,30240
2016-08-26T07:17:52.557Z,43424
2016-08-26T07:18:51.907Z,56064
2016-08-26T07:19:51.918Z,46368
2016-08-26T07:20:51.962Z,51712
2016-08-26T07:21:52.689Z,54304
2016-08-26T07:22:52.767Z,53472
2016-08-26T07:23:52.758Z,29440
2016-08-26T07:24:52.804Z,42912
2016-08-26T07:25:52.898Z,49248
2016-08-26T07:26:51.577Z,23648
2016-08-26T07:27:52.970Z,51104
2016-08-26T07:28:52.932Z,47168
2016-08-26T07:29:52.274Z,46016
2016-08-26T07:30:53.010Z,41408
2016-08-26T07:31:54.116Z,40096
2016-08-26T07:32:52.473Z,46560
2016-08-26T07:33:53.148Z,55136
2016-08-26T07:34:53.164Z,56224
2016-08-26T07:35:53.177Z,57184
2016-08-26T07:36:52.588Z,39296
2016-08-26T07:37:52.537Z,22880
2016-08-26T07:38:53.308Z,43168
2016-08-26T07:39:53.325Z,35296
2016-08-26T07:40:52.743Z,13120
2016-08-26T07:41:52.779Z,28864
2016-08-26T07:42:53.425Z,34144
2016-08-26T07:43:54.186Z,25024
2016-08-26T07:44:53.489Z,46688
2016-08-26T07:45:53.594Z,43648
2016-08-26T07:46:54.289Z,51840
2016-08-26T07:47:52.898Z,51520
2016-08-26T07:48:54.347Z,50208
2016-08-26T07:49:53.177Z,52768
2016-08-26T07:50:54.407Z,51296
2016-08-26T07:51:54.458Z,46688
2016-08-26T07:52:53.786Z,34272
2016-08-26T07:53:53.107Z,23136
2016-08-26T07:54:53.165Z,12980
2016-08-26T07:55:52.468Z,9804
2016-08-26T07:56:54.146Z,10020
2016-08-26T07:57:54.159Z,9708
2016-08-26T07:58:54.697Z,9132
2016-08-26T07:59:54.203Z,9280
2016-08-26T08:00:54.776Z,9404
2016-08-26T08:01:54.129Z,9312
2016-08-26T08:02:53.406Z,9080
2016-08-26T08:03:53.447Z,9404
2016-08-26T08:04:54.177Z,9396
2016-08-26T08:05:54.980Z,9340
2016-08-26T08:06:54.969Z,9332
2016-08-26T08:07:54.377Z,9280
2016-08-26T08:08:53.606Z,9288
2016-08-26T08:09:54.347Z,9180
2016-08-26T08:10:54.423Z,9216
2016-08-26T08:11:54.407Z,9336
2016-08-26T08:12:54.457Z,9524
2016-08-26T08:13:53.767Z,9684
2016-08-26T08:14:55.225Z,9776
2016-08-26T08:15:54.555Z,9780
2016-08-26T08:16:53.886Z,9540
2016-08-26T08:17:54.638Z,9396
2016-08-26T08:18:54.668Z,9432
2016-08-26T08:19:54.001Z,9532
2016-08-26T08:20:55.414Z,9484
2016-08-26T08:21:54.768Z,9504
2016-08-26T08:22:54.793Z,9336
2016-08-26T08:23:55.613Z,8772
2016-08-26T08:24:55.565Z,7904
2016-08-26T08:25:55.592Z,7524
2016-08-26T08:26:54.987Z,8012
2016-08-26T08:27:53.517Z,8528
2016-08-26T08:28:54.945Z,8860
2016-08-26T08:29:54.988Z,8916
2016-08-26T08:30:55.023Z,9104
2016-08-26T08:31:55.757Z,9300
2016-08-26T08:32:55.182Z,9216
2016-08-26T08:33:55.803Z,8788
2016-08-26T08:34:55.188Z,9468
2016-08-26T08:35:55.157Z,9236
2016-08-26T08:36:55.205Z,8652
2016-08-26T08:37:55.243Z,8152
2016-08-26T08:38:54.567Z,7736
2016-08-26T08:39:55.307Z,7464
2016-08-26T08:40:55.322Z,7404
2016-08-26T08:41:54.737Z,7116
2016-08-26T08:42:56.095Z,7256
2016-08-26T08:43:56.285Z,7632
2016-08-26T08:44:55.454Z,7868
2016-08-26T08:45:54.785Z,8136
2016-08-26T08:46:54.848Z,7968
2016-08-26T08:47:55.537Z,7412
2016-08-26T08:48:54.977Z,6788
2016-08-26T08:49:55.586Z,6452
2016-08-26T08:50:55.009Z,6784
2016-08-26T08:51:54.933Z,6560
2016-08-26T08:52:55.056Z,6300
2016-08-26T08:53:55.006Z,6400
2016-08-26T08:54:55.034Z,6424
2016-08-26T08:55:55.081Z,6388
2016-08-26T08:56:55.816Z,6280
2016-08-26T08:57:55.840Z,6220
2016-08-26T08:58:56.658Z,6148
2016-08-26T08:59:55.303Z,5592
2016-08-26T09:00:55.204Z,5652
2016-08-26T09:01:54.544Z,5844
2016-08-26T09:02:54.574Z,5600
2016-08-26T09:03:56.031Z,6252
2016-08-26T09:04:56.766Z,6248
2016-08-26T09:05:55.374Z,6284
2016-08-26T09:06:55.399Z,6216
2016-08-26T09:07:56.137Z,6176
2016-08-26T09:08:54.739Z,6236
2016-08-26T09:09:56.202Z,6316
2016-08-26T09:10:55.593Z,6140
2016-08-26T09:11:56.245Z,6304
2016-08-26T09:12:57.092Z,6724
2016-08-26T09:13:55.611Z,6904
2016-08-26T09:14:57.123Z,6656
2016-08-26T09:15:56.377Z,6156
2016-08-26T09:16:57.121Z,6068
2016-08-26T09:17:57.137Z,6260
2016-08-26T09:18:56.478Z,6500
2016-08-26T09:19:57.230Z,6472
2016-08-26T09:20:56.519Z,6428
2016-08-26T09:21:57.533Z,6368
2016-08-26T09:22:57.549Z,6236
2016-08-26T09:23:55.199Z,6648
2016-08-26T09:24:56.795Z,6540
2016-08-26T09:25:56.673Z,6940
2016-08-26T09:26:55.365Z,6860
2016-08-26T09:27:56.702Z,6572
2016-08-26T09:28:56.805Z,6740
2016-08-26T09:29:56.775Z,6636
2016-08-26T09:30:56.813Z,6628
2016-08-26T09:31:56.125Z,6492
2016-08-26T09:32:56.873Z,6756
2016-08-26T09:33:56.893Z,6976
2016-08-26T09:34:56.920Z,6852
2016-08-26T09:35:56.967Z,6492
2016-08-26T09:36:57.758Z,6116
2016-08-26T09:37:57.022Z,5996
2016-08-26T09:38:57.050Z,6124
2016-08-26T09:39:57.782Z,6324
2016-08-26T09:40:57.133Z,6352
2016-08-26T09:41:57.895Z,5940
2016-08-26T09:42:57.169Z,6204
2016-08-26T09:43:56.508Z,6220
2016-08-26T09:44:57.231Z,6036
2016-08-26T09:45:56.566Z,5996
2016-08-26T09:46:57.604Z,6076
2016-08-26T09:47:56.627Z,5864
2016-08-26T09:48:58.077Z,5496
2016-08-26T09:49:58.115Z,5828
2016-08-26T09:50:58.173Z,6056
2016-08-26T09:51:58.145Z,6132
2016-08-26T09:52:57.622Z,6088
2016-08-26T09:53:58.203Z,6056
2016-08-26T09:54:58.238Z,6048
2016-08-26T09:55:57.672Z,6076
2016-08-26T09:56:56.884Z,6084
2016-08-26T09:57:58.335Z,6356
2016-08-26T09:58:57.634Z,6524
2016-08-26T09:59:56.990Z,6516
2016-08-26T10:00:58.433Z,6532
2016-08-26T10:01:57.745Z,6412
2016-08-26T10:02:58.485Z,6116
2016-08-26T10:03:57.799Z,6364
2016-08-26T10:04:57.832Z,6280
2016-08-26T10:05:57.860Z,6560
2016-08-26T10:06:58.050Z,6700
2016-08-26T10:07:57.963Z,6880
2016-08-26T10:08:57.947Z,7032
2016-08-26T10:09:57.984Z,6984
2016-08-26T10:10:57.303Z,6736
2016-08-26T10:11:58.061Z,6564
2016-08-26T10:12:58.752Z,6412
2016-08-26T10:13:58.101Z,6228
2016-08-26T10:14:58.123Z,6036
2016-08-26T10:15:58.161Z,6020
2016-08-26T10:16:58.212Z,6024
2016-08-26T10:17:57.614Z,6204
2016-08-26T10:18:58.971Z,6424
2016-08-26T10:19:58.285Z,6416
2016-08-26T10:20:58.309Z,6220
2016-08-26T10:21:57.651Z,5616
2016-08-26T10:22:57.762Z,5912
2016-08-26T10:23:58.397Z,6068
2016-08-26T10:24:58.442Z,6192
2016-08-26T10:25:58.471Z,6160
2016-08-26T10:26:59.222Z,6052
2016-08-26T10:27:58.583Z,5968
2016-08-26T10:28:58.575Z,5964
2016-08-26T10:29:58.600Z,6164
2016-08-26T10:30:59.338Z,6484
2016-08-26T10:31:58.671Z,7052
2016-08-26T10:32:59.454Z,7216
2016-08-26T10:33:58.723Z,7304
2016-08-26T10:34:59.440Z,7304
2016-08-26T10:35:58.784Z,7160
2016-08-26T10:36:58.122Z,7196
2016-08-26T10:37:57.432Z,7344
2016-08-26T10:38:58.161Z,7032
2016-08-26T10:39:59.033Z,6884
2016-08-26T10:40:58.948Z,6920
2016-08-26T10:41:59.694Z,6996
2016-08-26T10:42:58.970Z,6904
2016-08-26T10:43:59.003Z,6676
2016-08-26T10:44:59.072Z,6544
2016-08-26T10:45:59.103Z,6456
2016-08-26T10:46:58.471Z,6364
2016-08-26T10:47:59.854Z,6336
2016-08-26T10:48:58.471Z,6288
2016-08-26T10:49:58.513Z,6276
2016-08-26T10:50:59.931Z,6196
2016-08-26T10:51:58.540Z,5836
2016-08-26T10:52:59.342Z,6028
2016-08-26T10:53:57.994Z,6068
2016-08-26T10:54:59.362Z,6172
2016-08-26T10:55:59.386Z,6260
2016-08-26T10:57:00.150Z,6272
2016-08-26T10:58:00.163Z,6280
2016-08-26T10:58:59.485Z,6352
2016-08-26T11:00:00.215Z,6420
2016-08-26T11:00:59.553Z,6448
2016-08-26T11:01:59.742Z,6500
2016-08-26T11:02:58.873Z,6476
2016-08-26T11:03:59.636Z,6544
2016-08-26T11:04:59.751Z,6520
2016-08-26T11:06:00.557Z,6468
2016-08-26T11:07:00.427Z,6432
2016-08-26T11:07:59.786Z,6436
2016-08-26T11:08:59.794Z,6444
2016-08-26T11:09:59.819Z,6424
2016-08-26T11:10:59.846Z,6436
2016-08-26T11:11:59.885Z,6424
2016-08-26T11:13:00.632Z,6436
2016-08-26T11:13:59.946Z,6472
2016-08-26T11:15:00.016Z,6528
2016-08-26T11:16:00.731Z,6620
2016-08-26T11:17:00.045Z,6696
2016-08-26T11:18:00.120Z,6720
2016-08-26T11:19:00.257Z,6708
2016-08-26T11:20:00.118Z,6684
2016-08-26T11:21:00.250Z,6692
2016-08-26T11:22:01.204Z,6752
2016-08-26T11:22:59.527Z,6828
2016-08-26T11:23:59.903Z,6904
2016-08-26T11:25:00.425Z,7000
2016-08-26T11:26:01.186Z,7040
2016-08-26T11:27:01.049Z,7076
2016-08-26T11:27:59.716Z,7060
2016-08-26T11:28:59.703Z,7020
2016-08-26T11:30:01.156Z,6972
2016-08-26T11:31:00.483Z,6940
2016-08-26T11:32:00.501Z,6912
2016-08-26T11:33:01.414Z,6924
2016-08-26T11:33:59.853Z,6988
2016-08-26T11:35:00.615Z,7060
2016-08-26T11:36:00.636Z,7140
2016-08-26T11:37:01.346Z,7212
2016-08-26T11:38:00.733Z,7228
2016-08-26T11:38:59.408Z,7244
2016-08-26T11:40:00.787Z,7252
2016-08-26T11:41:00.059Z,7244
2016-08-26T11:42:00.104Z,7232
2016-08-26T11:43:00.847Z,7184
2016-08-26T11:44:01.576Z,7156
2016-08-26T11:45:00.904Z,7136
2016-08-26T11:46:00.955Z,7112
2016-08-26T11:47:01.019Z,7080
2016-08-26T11:48:01.157Z,7060
2016-08-26T11:49:01.729Z,7008
2016-08-26T11:50:01.220Z,7004
2016-08-26T11:51:01.242Z,7068
2016-08-26T11:52:01.147Z,7124
2016-08-26T11:53:00.468Z,7124
2016-08-26T11:54:01.175Z,7116
2016-08-26T11:55:01.926Z,7076
2016-08-26T11:56:01.496Z,7028
2016-08-26T11:57:00.556Z,6996
2016-08-26T11:58:01.400Z,7016
2016-08-26T11:59:02.045Z,7076
2016-08-26T12:00:02.081Z,7212
2016-08-26T12:01:02.130Z,7352
2016-08-26T12:02:02.127Z,7444
2016-08-26T12:03:02.166Z,7468
2016-08-26T12:04:02.216Z,7456
2016-08-26T12:05:01.536Z,7432
2016-08-26T12:06:01.551Z,7424
2016-08-26T12:07:02.296Z,7424
2016-08-26T12:08:02.327Z,7452
2016-08-26T12:09:01.654Z,7500
2016-08-26T12:10:02.401Z,7528
2016-08-26T12:11:01.031Z,7500
2016-08-26T12:12:02.435Z,7416
2016-08-26T12:13:02.462Z,7340
2016-08-26T12:14:01.797Z,7284
2016-08-26T12:15:02.527Z,7280
2016-08-26T12:16:02.576Z,7308
2016-08-26T12:17:02.581Z,7296
2016-08-26T12:18:02.640Z,7256
2016-08-26T12:19:01.238Z,7200
2016-08-26T12:20:02.752Z,7180
2016-08-26T12:21:02.741Z,7176
2016-08-26T12:22:02.796Z,7224
2016-08-26T12:23:02.808Z,7272
2016-08-26T12:24:01.397Z,7284
2016-08-26T12:25:02.232Z,7284
2016-08-26T12:26:02.879Z,7252
2016-08-26T12:27:02.901Z,7236
2016-08-26T12:28:02.985Z,7192
2016-08-26T12:29:02.285Z,7160
2016-08-26T12:30:02.278Z,7128
2016-08-26T12:31:03.108Z,7112
2016-08-26T12:32:02.330Z,7076
2016-08-26T12:33:02.376Z,7036
2016-08-26T12:34:03.081Z,7016
2016-08-26T12:35:03.143Z,7000
2016-08-26T12:36:03.166Z,6988
2016-08-26T12:37:03.186Z,6956
2016-08-26T12:38:02.567Z,6924
2016-08-26T12:39:03.264Z,6892
2016-08-26T12:40:01.868Z,6816
2016-08-26T12:41:03.315Z,6648
2016-08-26T12:42:03.477Z,6456
2016-08-26T12:43:01.266Z,6348
2016-08-26T12:44:02.730Z,6248
2016-08-26T12:45:02.771Z,6192
2016-08-26T12:46:02.750Z,6176
2016-08-26T12:47:02.228Z,6156
2016-08-26T12:48:02.117Z,6164
2016-08-26T12:49:03.667Z,6136
2016-08-26T12:50:02.894Z,6120
2016-08-26T12:51:02.935Z,6128
2016-08-26T12:52:03.116Z,6116
2016-08-26T12:53:03.086Z,6076
2016-08-26T12:54:03.079Z,6064
2016-08-26T12:55:03.772Z,6088
2016-08-26T12:56:03.764Z,6108
2016-08-26T12:57:03.794Z,6136
2016-08-26T12:58:03.917Z,6144
2016-08-26T12:59:03.874Z,6168
2016-08-26T13:00:03.183Z,6192
2016-08-26T13:01:03.925Z,6236
2016-08-26T13:02:03.251Z,6236
2016-08-26T13:03:02.575Z,6256
2016-08-26T13:04:03.304Z,6268
2016-08-26T13:05:03.356Z,6308
2016-08-26T13:06:04.093Z,6344
2016-08-26T13:07:03.393Z,6376
2016-08-26T13:08:03.442Z,6388
2016-08-26T13:09:03.572Z,6380
2016-08-26T13:10:04.195Z,6376
2016-08-26T13:11:04.300Z,6332
2016-08-26T13:12:03.575Z,6288
2016-08-26T13:13:03.613Z,6264
2016-08-26T13:14:03.706Z,6268
2016-08-26T13:15:04.359Z,6316
2016-08-26T13:16:04.398Z,6364
2016-08-26T13:17:03.846Z,6376
2016-08-26T13:18:04.217Z,6352
2016-08-26T13:19:04.627Z,6324
2016-08-26T13:20:04.856Z,6312
2016-08-26T13:21:04.617Z,6320
2016-08-26T13:22:04.103Z,6328
2016-08-26T13:23:04.048Z,6336
2016-08-26T13:24:04.795Z,6356
2016-08-26T13:25:03.391Z,6392
2016-08-26T13:26:04.702Z,6404
2016-08-26T13:27:04.007Z,6428
2016-08-26T13:28:04.043Z,6464
2016-08-26T13:29:04.093Z,6488
2016-08-26T13:30:04.804Z,6452
2016-08-26T13:31:03.432Z,6384
2016-08-26T13:32:04.848Z,6308
2016-08-26T13:33:04.973Z,6224
2016-08-26T13:34:04.937Z,6172
2016-08-26T13:35:04.270Z,6132
2016-08-26T13:36:04.986Z,6124
2016-08-26T13:37:03.620Z,6168
2016-08-26T13:38:05.174Z,6244
2016-08-26T13:39:05.068Z,6328
2016-08-26T13:40:05.201Z,6436